Terminal Aerodrome Forecast
Issued by NWS

Home | Current Version | Previous Version | Graphics & Text | Print | Product List | Glossary On
Versions: 1 2 3 4 5 6 7 8 9 10 11 12 13 14 15
000
FTUS43 KPAH 241906 AAA
TAFOWB
TAF AMD
KOWB 241906Z 2419/2518 35007KT P6SM -RA SCT013 OVC080
      TEMPO 2419/2422 5SM -RA BR BKN012 OVC013
     FM242230 32006KT P6SM VCSH SCT030 BKN080
     FM250430 27007KT 5SM BR VCSH BKN003 OVC060
     FM251500 29010KT P6SM VCSH BKN015=

USA.gov is the U.S. government's official web portal to all federal, state and local government web resources and services.